createdAt,value
2018-08-04T00:00:37.753Z,1008.95
2018-08-04T00:01:37.725Z,1008.95
2018-08-04T00:02:37.715Z,1009.00
2018-08-04T00:03:37.700Z,1008.95
2018-08-04T00:04:37.690Z,1008.97
2018-08-04T00:05:37.674Z,1008.95
2018-08-04T00:06:37.675Z,1008.96
2018-08-04T00:07:37.648Z,1008.99
2018-08-04T00:08:37.639Z,1008.97
2018-08-04T00:09:37.622Z,1008.94
2018-08-04T00:10:37.610Z,1008.96
2018-08-04T00:11:37.611Z,1008.94
2018-08-04T00:12:37.590Z,1008.99
2018-08-04T00:13:37.572Z,1008.97
2018-08-04T00:14:37.559Z,1008.98
2018-08-04T00:15:37.547Z,1009.00
2018-08-04T00:16:37.544Z,1008.98
2018-08-04T00:17:37.521Z,1008.99
2018-08-04T00:18:37.506Z,1009.00
2018-08-04T00:19:37.493Z,1008.99
2018-08-04T00:20:37.482Z,1008.98
2018-08-04T00:21:37.479Z,1008.96
2018-08-04T00:22:37.455Z,1008.96
2018-08-04T00:23:37.440Z,1008.95
2018-08-04T00:24:37.431Z,1008.96
2018-08-04T00:25:37.417Z,1008.89
2018-08-04T00:26:37.419Z,1008.92
2018-08-04T00:27:37.393Z,1008.93
2018-08-04T00:28:37.376Z,1008.89
2018-08-04T00:29:37.368Z,1008.94
2018-08-04T00:30:37.353Z,1008.88
2018-08-04T00:31:37.344Z,1008.88
2018-08-04T00:32:47.283Z,1008.85
2018-08-04T00:33:37.313Z,1008.83
2018-08-04T00:34:37.306Z,1008.85
2018-08-04T00:35:37.288Z,1008.81
2018-08-04T00:36:37.277Z,1008.82
2018-08-04T00:37:37.278Z,1008.82
2018-08-04T00:38:37.247Z,1008.82
2018-08-04T00:39:37.237Z,1008.83
2018-08-04T00:40:37.225Z,1008.82
2018-08-04T00:41:37.214Z,1008.79
2018-08-04T00:42:37.215Z,1008.81
2018-08-04T00:43:37.192Z,1008.81
2018-08-04T00:44:37.174Z,1008.81
2018-08-04T00:45:37.160Z,1008.82
2018-08-04T00:46:37.148Z,1008.80
2018-08-04T00:47:37.153Z,1008.81
2018-08-04T00:48:37.121Z,1008.82
2018-08-04T00:49:37.111Z,1008.86
2018-08-04T00:50:37.094Z,1008.82
2018-08-04T00:51:37.082Z,1008.85
2018-08-04T00:52:37.076Z,1008.83
2018-08-04T00:53:37.066Z,1008.86
2018-08-04T00:54:37.038Z,1008.87
2018-08-04T00:55:37.029Z,1008.87
2018-08-04T00:56:37.020Z,1008.89
2018-08-04T00:57:37.011Z,1008.87
2018-08-04T00:58:37.001Z,1008.90
2018-08-04T00:59:36.978Z,1008.90
2018-08-04T01:00:36.972Z,1008.93
2018-08-04T01:01:36.949Z,1008.92
2018-08-04T01:02:36.937Z,1008.93
2018-08-04T01:03:36.939Z,1008.90
2018-08-04T01:04:36.915Z,1008.87
2018-08-04T01:05:36.900Z,1008.91
2018-08-04T01:06:36.905Z,1008.90
2018-08-04T01:07:36.877Z,1008.88
2018-08-04T01:08:36.883Z,1008.85
2018-08-04T01:09:36.848Z,1008.87
2018-08-04T01:10:47.317Z,1008.84
2018-08-04T01:11:36.822Z,1008.80
2018-08-04T01:12:36.807Z,1008.78
2018-08-04T01:13:36.795Z,1008.78
2018-08-04T01:14:36.794Z,1008.77
2018-08-04T01:15:36.769Z,1008.76
2018-08-04T01:16:36.756Z,1008.75
2018-08-04T01:17:36.742Z,1008.74
2018-08-04T01:18:36.731Z,1008.77
2018-08-04T01:19:36.731Z,1008.72
2018-08-04T01:20:36.703Z,1008.70
2018-08-04T01:21:36.691Z,1008.71
2018-08-04T01:22:36.682Z,1008.68
2018-08-04T01:23:36.670Z,1008.71
2018-08-04T01:24:36.662Z,1008.69
2018-08-04T01:25:36.638Z,1008.70
2018-08-04T01:26:36.626Z,1008.72
2018-08-04T01:27:36.620Z,1008.71
2018-08-04T01:28:36.599Z,1008.68
2018-08-04T01:29:36.598Z,1008.70
2018-08-04T01:30:36.573Z,1008.71
2018-08-04T01:31:36.559Z,1008.68
2018-08-04T01:32:36.582Z,1008.68
2018-08-04T01:33:36.529Z,1008.66
2018-08-04T01:34:36.538Z,1008.68
2018-08-04T01:35:36.506Z,1008.63
2018-08-04T01:36:36.494Z,1008.65
2018-08-04T01:37:36.480Z,1008.62
2018-08-04T01:38:36.467Z,1008.66
2018-08-04T01:39:36.456Z,1008.60
2018-08-04T01:40:36.447Z,1008.63
2018-08-04T01:41:36.427Z,1008.60
2018-08-04T01:42:36.414Z,1008.64
2018-08-04T01:43:36.402Z,1008.66
2018-08-04T01:44:36.393Z,1008.67
2018-08-04T01:45:36.386Z,1008.68
2018-08-04T01:46:36.360Z,1008.66
2018-08-04T01:47:36.348Z,1008.66
2018-08-04T01:48:36.336Z,1008.69
2018-08-04T01:49:36.323Z,1008.71
2018-08-04T01:50:36.319Z,1008.71
2018-08-04T01:51:36.300Z,1008.74
2018-08-04T01:52:36.282Z,1008.80
2018-08-04T01:53:36.282Z,1008.82
2018-08-04T01:54:36.256Z,1008.77
2018-08-04T01:55:36.271Z,1008.82
2018-08-04T01:56:36.231Z,1008.80
2018-08-04T01:57:36.218Z,1008.84
2018-08-04T01:58:36.202Z,1008.81
2018-08-04T01:59:36.192Z,1008.80
2018-08-04T02:00:36.177Z,1008.78
2018-08-04T02:01:36.178Z,1008.74
2018-08-04T02:02:36.154Z,1008.78
2018-08-04T02:03:36.138Z,1008.69
2018-08-04T02:04:36.127Z,1008.70
2018-08-04T02:05:36.112Z,1008.69
2018-08-04T02:06:36.111Z,1008.70
2018-08-04T02:07:36.089Z,1008.69
2018-08-04T02:08:36.074Z,1008.66
2018-08-04T02:09:36.059Z,1008.70
2018-08-04T02:10:36.047Z,1008.68
2018-08-04T02:11:36.045Z,1008.63
2018-08-04T02:12:36.023Z,1008.63
2018-08-04T02:13:36.008Z,1008.63
2018-08-04T02:14:35.994Z,1008.67
2018-08-04T02:15:35.981Z,1008.62
2018-08-04T02:16:35.978Z,1008.69
2018-08-04T02:17:35.955Z,1008.69
2018-08-04T02:18:35.941Z,1008.70
2018-08-04T02:19:35.924Z,1008.74
2018-08-04T02:20:35.915Z,1008.77
2018-08-04T02:21:35.916Z,1008.81
2018-08-04T02:22:35.889Z,1008.81
2018-08-04T02:23:35.874Z,1008.85
2018-08-04T02:24:35.863Z,1008.84
2018-08-04T02:25:35.850Z,1008.84
2018-08-04T02:26:35.835Z,1008.81
2018-08-04T02:27:35.835Z,1008.85
2018-08-04T02:28:35.808Z,1008.83
2018-08-04T02:29:35.796Z,1008.79
2018-08-04T02:30:35.783Z,1008.79
2018-08-04T02:31:35.769Z,1008.81
2018-08-04T02:32:35.771Z,1008.77
2018-08-04T02:33:35.744Z,1008.80
2018-08-04T02:34:35.736Z,1008.79
2018-08-04T02:35:35.718Z,1008.78
2018-08-04T02:36:35.707Z,1008.75
2018-08-04T02:37:35.707Z,1008.76
2018-08-04T02:38:35.676Z,1008.75
2018-08-04T02:39:35.667Z,1008.75
2018-08-04T02:40:35.650Z,1008.72
2018-08-04T02:41:35.677Z,1008.69
2018-08-04T02:42:35.622Z,1008.69
2018-08-04T02:43:35.636Z,1008.66
2018-08-04T02:44:35.602Z,1008.69
2018-08-04T02:45:35.587Z,1008.68
2018-08-04T02:46:35.569Z,1008.72
2018-08-04T02:47:35.557Z,1008.69
2018-08-04T02:48:35.553Z,1008.64
2018-08-04T02:49:35.531Z,1008.64
2018-08-04T02:50:35.517Z,1008.65
2018-08-04T02:51:35.504Z,1008.64
2018-08-04T02:52:35.487Z,1008.69
2018-08-04T02:53:35.487Z,1008.73
2018-08-04T02:54:35.463Z,1008.71
2018-08-04T02:55:35.449Z,1008.74
2018-08-04T02:56:35.436Z,1008.75
2018-08-04T02:57:35.423Z,1008.71
2018-08-04T02:58:35.432Z,1008.73
2018-08-04T02:59:35.395Z,1008.74
2018-08-04T03:00:35.389Z,1008.70
2018-08-04T03:01:35.369Z,1008.72
2018-08-04T03:02:35.356Z,1008.75
2018-08-04T03:03:35.356Z,1008.71
2018-08-04T03:04:35.337Z,1008.71
2018-08-04T03:05:35.321Z,1008.68
2018-08-04T03:06:35.301Z,1008.67
2018-08-04T03:07:35.290Z,1008.63
2018-08-04T03:08:35.392Z,1008.67
2018-08-04T03:09:35.263Z,1008.63
2018-08-04T03:10:35.255Z,1008.62
2018-08-04T03:11:35.235Z,1008.62
2018-08-04T03:12:35.221Z,1008.64
2018-08-04T03:13:35.210Z,1008.60
2018-08-04T03:14:35.204Z,1008.62
2018-08-04T03:15:35.182Z,1008.61
2018-08-04T03:16:35.170Z,1008.59
2018-08-04T03:17:35.159Z,1008.63
2018-08-04T03:18:35.140Z,1008.64
2018-08-04T03:19:35.143Z,1008.62
2018-08-04T03:20:35.112Z,1008.61
2018-08-04T03:21:35.104Z,1008.59
2018-08-04T03:22:35.087Z,1008.62
2018-08-04T03:23:35.074Z,1008.64
2018-08-04T03:24:35.081Z,1008.64
2018-08-04T03:25:35.047Z,1008.66
2018-08-04T03:26:35.035Z,1008.70
2018-08-04T03:27:35.021Z,1008.76
2018-08-04T03:28:35.012Z,1008.72
2018-08-04T03:29:34.994Z,1008.80
2018-08-04T03:30:34.993Z,1008.78
2018-08-04T03:31:34.967Z,1008.77
2018-08-04T03:32:34.956Z,1008.72
2018-08-04T03:33:34.939Z,1008.73
2018-08-04T03:34:34.925Z,1008.74
2018-08-04T03:35:34.922Z,1008.77
2018-08-04T03:36:34.899Z,1008.77
2018-08-04T03:37:34.885Z,1008.75
2018-08-04T03:38:34.874Z,1008.77
2018-08-04T03:39:34.860Z,1008.82
2018-08-04T03:40:34.854Z,1008.85
2018-08-04T03:41:34.835Z,1008.82
2018-08-04T03:42:34.817Z,1008.82
2018-08-04T03:43:34.804Z,1008.81
2018-08-04T03:44:34.790Z,1008.82
2018-08-04T03:45:34.788Z,1008.82
2018-08-04T03:46:34.763Z,1008.82
2018-08-04T03:47:34.750Z,1008.84
2018-08-04T03:48:34.738Z,1008.77
2018-08-04T03:49:34.724Z,1008.79
2018-08-04T03:50:34.721Z,1008.78
2018-08-04T03:51:34.694Z,1008.78
2018-08-04T03:52:34.684Z,1008.73
2018-08-04T03:53:34.670Z,1008.71
2018-08-04T03:54:34.658Z,1008.68
2018-08-04T03:55:34.644Z,1008.68
2018-08-04T03:56:34.643Z,1008.69
2018-08-04T03:57:34.616Z,1008.68
2018-08-04T03:58:34.600Z,1008.72
2018-08-04T03:59:34.591Z,1008.70
2018-08-04T04:00:34.574Z,1008.68
2018-08-04T04:01:34.572Z,1008.67
2018-08-04T04:02:34.547Z,1008.68
2018-08-04T04:03:34.538Z,1008.69
2018-08-04T04:04:34.524Z,1008.69
2018-08-04T04:05:34.507Z,1008.72
2018-08-04T04:06:34.569Z,1008.72
2018-08-04T04:07:34.479Z,1008.74
2018-08-04T04:08:34.468Z,1008.77
2018-08-04T04:09:34.452Z,1008.78
2018-08-04T04:10:34.438Z,1008.79
2018-08-04T04:11:34.432Z,1008.77
2018-08-04T04:12:34.423Z,1008.82
2018-08-04T04:13:34.400Z,1008.86
2018-08-04T04:14:34.381Z,1008.84
2018-08-04T04:15:34.375Z,1008.82
2018-08-04T04:16:34.357Z,1008.83
2018-08-04T04:17:34.355Z,1008.83
2018-08-04T04:18:34.331Z,1008.87
2018-08-04T04:19:34.315Z,1008.85
2018-08-04T04:20:34.306Z,1008.85
2018-08-04T04:21:34.291Z,1008.88
2018-08-04T04:22:34.287Z,1008.88
2018-08-04T04:23:34.263Z,1008.89
2018-08-04T04:24:34.250Z,1008.86
2018-08-04T04:25:34.235Z,1008.89
2018-08-04T04:26:34.224Z,1008.89
2018-08-04T04:27:34.223Z,1008.84
2018-08-04T04:28:34.200Z,1008.78
2018-08-04T04:29:34.184Z,1008.79
2018-08-04T04:30:34.170Z,1008.80
2018-08-04T04:31:34.155Z,1008.77
2018-08-04T04:32:34.143Z,1008.85
2018-08-04T04:33:34.139Z,1008.82
2018-08-04T04:34:34.114Z,1008.82
2018-08-04T04:35:34.102Z,1008.82
2018-08-04T04:36:34.094Z,1008.79
2018-08-04T04:37:34.075Z,1008.75
2018-08-04T04:38:34.072Z,1008.83
2018-08-04T04:39:34.050Z,1008.84
2018-08-04T04:40:34.033Z,1008.86
2018-08-04T04:41:34.024Z,1008.87
2018-08-04T04:42:34.008Z,1008.88
2018-08-04T04:43:34.010Z,1008.89
2018-08-04T04:44:33.986Z,1008.91
2018-08-04T04:45:33.967Z,1008.95
2018-08-04T04:46:33.955Z,1008.98
2018-08-04T04:47:33.943Z,1009.02
2018-08-04T04:48:33.967Z,1009.07
2018-08-04T04:49:33.926Z,1009.07
2018-08-04T04:50:33.901Z,1009.07
2018-08-04T04:51:33.889Z,1009.01
2018-08-04T04:52:33.873Z,1008.95
2018-08-04T04:53:33.859Z,1008.95
2018-08-04T04:54:36.288Z,1008.94
2018-08-04T04:55:33.833Z,1008.98
2018-08-04T04:56:33.820Z,1008.93
2018-08-04T04:57:33.809Z,1008.92
2018-08-04T04:58:33.796Z,1008.91
2018-08-04T04:59:33.791Z,1008.94
2018-08-04T05:00:33.768Z,1008.97
2018-08-04T05:01:33.754Z,1008.97
2018-08-04T05:02:33.762Z,1008.98
2018-08-04T05:03:33.728Z,1009.01
2018-08-04T05:04:33.733Z,1009.07
2018-08-04T05:05:33.707Z,1009.13
2018-08-04T05:06:33.687Z,1009.20
2018-08-04T05:07:33.669Z,1009.21
2018-08-04T05:08:33.659Z,1009.15
2018-08-04T05:09:33.653Z,1009.15
2018-08-04T05:10:33.643Z,1009.22
2018-08-04T05:11:33.623Z,1009.18
2018-08-04T05:12:33.609Z,1009.18
2018-08-04T05:13:33.594Z,1009.18
2018-08-04T05:14:33.580Z,1009.22
2018-08-04T05:15:33.578Z,1009.21
2018-08-04T05:16:33.555Z,1009.19
2018-08-04T05:17:33.541Z,1009.24
2018-08-04T05:18:33.528Z,1009.22
2018-08-04T05:19:33.513Z,1009.23
2018-08-04T05:20:33.510Z,1009.18
2018-08-04T05:21:33.548Z,1009.17
2018-08-04T05:22:33.475Z,1009.18
2018-08-04T05:23:33.463Z,1009.13
2018-08-04T05:24:33.450Z,1009.14
2018-08-04T05:25:33.446Z,1009.18
2018-08-04T05:26:33.421Z,1009.19
2018-08-04T05:27:33.409Z,1009.23
2018-08-04T05:28:33.395Z,1009.22
2018-08-04T05:29:33.382Z,1009.26
2018-08-04T05:30:33.383Z,1009.32
2018-08-04T05:31:33.359Z,1009.36
2018-08-04T05:32:33.343Z,1009.38
2018-08-04T05:33:33.331Z,1009.38
2018-08-04T05:34:33.316Z,1009.36
2018-08-04T05:35:33.304Z,1009.34
2018-08-04T05:36:33.311Z,1009.38
2018-08-04T05:37:33.277Z,1009.44
2018-08-04T05:38:33.264Z,1009.41
2018-08-04T05:39:33.251Z,1009.42
2018-08-04T05:40:33.279Z,1009.42
2018-08-04T05:41:33.238Z,1009.37
2018-08-04T05:42:33.212Z,1009.40
2018-08-04T05:43:33.327Z,1009.41
2018-08-04T05:44:33.191Z,1009.43
2018-08-04T05:45:33.173Z,1009.43
2018-08-04T05:46:33.173Z,1009.44
2018-08-04T05:47:33.149Z,1009.42
2018-08-04T05:48:33.135Z,1009.37
2018-08-04T05:49:33.136Z,1009.38
2018-08-04T05:50:33.110Z,1009.40
2018-08-04T05:51:33.109Z,1009.39
2018-08-04T05:52:33.087Z,1009.39
2018-08-04T05:53:33.071Z,1009.39
2018-08-04T05:54:33.058Z,1009.43
2018-08-04T05:55:33.048Z,1009.42
2018-08-04T05:56:33.044Z,1009.40
2018-08-04T05:57:33.020Z,1009.44
2018-08-04T05:58:33.010Z,1009.39
2018-08-04T05:59:32.996Z,1009.43
2018-08-04T06:00:32.987Z,1009.44
2018-08-04T06:01:33.014Z,1009.43
2018-08-04T06:02:32.958Z,1009.46
2018-08-04T06:03:32.946Z,1009.50
2018-08-04T06:04:32.932Z,1009.54
2018-08-04T06:05:32.927Z,1009.55
2018-08-04T06:06:32.911Z,1009.53
2018-08-04T06:07:32.905Z,1009.55
2018-08-04T06:08:32.884Z,1009.57
2018-08-04T06:09:32.873Z,1009.57
2018-08-04T06:10:32.858Z,1009.52
2018-08-04T06:11:32.848Z,1009.53
2018-08-04T06:12:32.846Z,1009.50
2018-08-04T06:13:32.822Z,1009.49
2018-08-04T06:14:32.809Z,1009.50
2018-08-04T06:15:32.797Z,1009.52
2018-08-04T06:16:32.787Z,1009.48
2018-08-04T06:17:32.788Z,1009.52
2018-08-04T06:18:32.765Z,1009.53
2018-08-04T06:19:32.757Z,1009.52
2018-08-04T06:20:32.739Z,1009.55
2018-08-04T06:21:32.726Z,1009.56
2018-08-04T06:22:32.712Z,1009.57
2018-08-04T06:23:32.815Z,1009.59
2018-08-04T06:24:32.689Z,1009.57
2018-08-04T06:25:32.677Z,1009.59
2018-08-04T06:26:32.664Z,1009.58
2018-08-04T06:27:32.653Z,1009.59
2018-08-04T06:28:32.661Z,1009.61
2018-08-04T06:29:32.629Z,1009.60
2018-08-04T06:30:32.633Z,1009.60
2018-08-04T06:31:32.604Z,1009.62
2018-08-04T06:32:32.592Z,1009.65
2018-08-04T06:33:32.589Z,1009.64
2018-08-04T06:34:32.569Z,1009.62
2018-08-04T06:35:32.556Z,1009.62
2018-08-04T06:36:32.544Z,1009.63
2018-08-04T06:37:32.532Z,1009.61
2018-08-04T06:38:32.528Z,1009.62
2018-08-04T06:39:32.511Z,1009.64
2018-08-04T06:40:32.497Z,1009.68
2018-08-04T06:41:32.536Z,1009.68
2018-08-04T06:42:32.473Z,1009.65
2018-08-04T06:43:32.472Z,1009.62
2018-08-04T06:44:32.450Z,1009.66
2018-08-04T06:45:32.438Z,1009.67
2018-08-04T06:46:32.424Z,1009.67
2018-08-04T06:47:32.415Z,1009.70
2018-08-04T06:48:32.448Z,1009.68
2018-08-04T06:49:32.392Z,1009.70
2018-08-04T06:50:32.379Z,1009.70
2018-08-04T06:51:32.368Z,1009.68
2018-08-04T06:52:32.356Z,1009.68
2018-08-04T06:53:32.345Z,1009.66
2018-08-04T06:54:32.343Z,1009.62
2018-08-04T06:55:32.321Z,1009.68
2018-08-04T06:56:32.310Z,1009.69
2018-08-04T06:57:32.302Z,1009.69
2018-08-04T06:58:32.287Z,1009.68
2018-08-04T06:59:32.291Z,1009.66
2018-08-04T07:00:32.264Z,1009.70
2018-08-04T07:01:32.270Z,1009.69
2018-08-04T07:02:32.244Z,1009.71
2018-08-04T07:03:32.228Z,1009.63
2018-08-04T07:04:32.226Z,1009.68
2018-08-04T07:05:32.206Z,1009.67
2018-08-04T07:06:32.201Z,1009.65
2018-08-04T07:07:32.182Z,1009.65
2018-08-04T07:08:32.171Z,1009.67
2018-08-04T07:09:32.189Z,1009.71
2018-08-04T07:10:32.147Z,1009.66
2018-08-04T07:11:32.160Z,1009.69
2018-08-04T07:12:32.142Z,1009.61
2018-08-04T07:13:32.116Z,1009.64
2018-08-04T07:14:32.119Z,1009.62
2018-08-04T07:15:32.091Z,1009.58
2018-08-04T07:16:32.084Z,1009.65
2018-08-04T07:17:32.066Z,1009.63
2018-08-04T07:18:32.057Z,1009.72
2018-08-04T07:19:32.045Z,1009.67
2018-08-04T07:20:32.047Z,1009.72
2018-08-04T07:21:32.024Z,1009.71
2018-08-04T07:22:32.011Z,1009.71
2018-08-04T07:23:32.004Z,1009.69
2018-08-04T07:24:31.993Z,1009.66
2018-08-04T07:25:32.001Z,1009.65
2018-08-04T07:26:31.966Z,1009.66
2018-08-04T07:27:31.956Z,1009.64
2018-08-04T07:28:31.952Z,1009.65
2018-08-04T07:29:31.935Z,1009.65
2018-08-04T07:30:31.954Z,1009.69
2018-08-04T07:31:31.922Z,1009.65
2018-08-04T07:32:31.903Z,1009.66
2018-08-04T07:33:31.896Z,1009.64
2018-08-04T07:34:31.908Z,1009.61
2018-08-04T07:35:31.884Z,1009.60
2018-08-04T07:36:31.864Z,1009.56
2018-08-04T07:37:31.857Z,1009.58
2018-08-04T07:38:31.863Z,1009.52
2018-08-04T07:39:31.830Z,1009.55
2018-08-04T07:40:31.909Z,1009.59
2018-08-04T07:41:32.382Z,1009.59
2018-08-04T07:42:31.798Z,1009.64
2018-08-04T07:43:31.788Z,1009.66
2018-08-04T07:44:31.779Z,1009.63
2018-08-04T07:45:31.768Z,1009.63
2018-08-04T07:46:31.769Z,1009.65
2018-08-04T07:47:31.767Z,1009.70
2018-08-04T07:48:31.758Z,1009.68
2018-08-04T07:49:31.728Z,1009.68
2018-08-04T07:50:31.718Z,1009.64
2018-08-04T07:51:31.725Z,1009.68
2018-08-04T07:52:31.694Z,1009.70
2018-08-04T07:53:31.685Z,1009.72
2018-08-04T07:54:31.674Z,1009.75
2018-08-04T07:55:31.666Z,1009.74
2018-08-04T07:56:31.678Z,1009.79
2018-08-04T07:57:31.646Z,1009.80
2018-08-04T07:58:31.635Z,1009.78
2018-08-04T07:59:31.749Z,1009.76
2018-08-04T08:00:31.614Z,1009.84
2018-08-04T08:01:31.603Z,1009.82
2018-08-04T08:02:31.599Z,1009.78
2018-08-04T08:03:31.581Z,1009.80
2018-08-04T08:04:31.573Z,1009.78
2018-08-04T08:05:31.568Z,1009.81
2018-08-04T08:06:31.551Z,1009.72
2018-08-04T08:07:31.554Z,1009.73
2018-08-04T08:08:31.531Z,1009.71
2018-08-04T08:09:31.521Z,1009.71
2018-08-04T08:10:31.583Z,1009.73
2018-08-04T08:11:31.544Z,1009.68
2018-08-04T08:12:31.502Z,1009.68
2018-08-04T08:13:31.487Z,1009.70
2018-08-04T08:14:31.472Z,1009.71
2018-08-04T08:15:31.465Z,1009.70
2018-08-04T08:16:31.449Z,1009.71
2018-08-04T08:17:31.449Z,1009.70
2018-08-04T08:18:31.434Z,1009.71
2018-08-04T08:19:31.467Z,1009.70
2018-08-04T08:20:31.406Z,1009.68
2018-08-04T08:21:31.399Z,1009.68
2018-08-04T08:22:31.399Z,1009.68
2018-08-04T08:23:31.377Z,1009.71
2018-08-04T08:24:31.410Z,1009.69
2018-08-04T08:25:31.358Z,1009.66
2018-08-04T08:26:31.346Z,1009.68
2018-08-04T08:27:31.358Z,1009.71
2018-08-04T08:28:31.336Z,1009.64
2018-08-04T08:29:31.316Z,1009.62
2018-08-04T08:30:31.305Z,1009.64
2018-08-04T08:31:31.309Z,1009.65
2018-08-04T08:32:31.292Z,1009.62
2018-08-04T08:33:31.308Z,1009.61
2018-08-04T08:34:31.265Z,1009.62
2018-08-04T08:35:31.256Z,1009.67
2018-08-04T08:36:31.246Z,1009.65
2018-08-04T08:37:31.240Z,1009.69
2018-08-04T08:38:31.243Z,1009.69
2018-08-04T08:39:31.217Z,1009.68
2018-08-04T08:40:31.223Z,1009.69
2018-08-04T08:41:31.204Z,1009.68
2018-08-04T08:42:31.199Z,1009.66
2018-08-04T08:43:31.174Z,1009.71
2018-08-04T08:44:31.174Z,1009.70
2018-08-04T08:45:31.154Z,1009.75
2018-08-04T08:46:31.144Z,1009.73
2018-08-04T08:47:31.140Z,1009.74
2018-08-04T08:48:31.126Z,1009.71
2018-08-04T08:49:31.140Z,1009.73
2018-08-04T08:50:31.103Z,1009.70
2018-08-04T08:51:31.093Z,1009.75
2018-08-04T08:52:31.085Z,1009.72
2018-08-04T08:53:31.392Z,1009.70
2018-08-04T08:54:31.075Z,1009.72
2018-08-04T08:55:31.054Z,1009.71
2018-08-04T08:56:31.048Z,1009.74
2018-08-04T08:57:31.035Z,1009.74
2018-08-04T08:58:31.022Z,1009.77
2018-08-04T08:59:31.040Z,1009.72
2018-08-04T09:00:31.015Z,1009.77
2018-08-04T09:01:30.996Z,1009.76
2018-08-04T09:02:30.984Z,1009.78
2018-08-04T09:03:30.987Z,1009.78
2018-08-04T09:04:31.009Z,1009.79
2018-08-04T09:05:30.969Z,1009.81
2018-08-04T09:06:30.947Z,1009.82
2018-08-04T09:07:30.937Z,1009.83
2018-08-04T09:08:30.983Z,1009.87
2018-08-04T09:09:30.919Z,1009.83
2018-08-04T09:10:30.924Z,1009.83
2018-08-04T09:11:30.898Z,1009.84
2018-08-04T09:12:30.887Z,1009.83
2018-08-04T09:13:30.879Z,1009.86
2018-08-04T09:14:30.867Z,1009.86
2018-08-04T09:15:30.860Z,1009.82
2018-08-04T09:16:30.860Z,1009.81
2018-08-04T09:17:30.841Z,1009.82
2018-08-04T09:18:30.828Z,1009.81
2018-08-04T09:19:30.821Z,1009.84
2018-08-04T09:20:30.812Z,1009.78
2018-08-04T09:21:30.814Z,1009.75
2018-08-04T09:22:30.792Z,1009.72
2018-08-04T09:23:30.900Z,1009.77
2018-08-04T09:24:30.770Z,1009.72
2018-08-04T09:25:30.801Z,1009.70
2018-08-04T09:26:30.816Z,1009.70
2018-08-04T09:27:30.871Z,1009.72
2018-08-04T09:28:30.798Z,1009.69
2018-08-04T09:29:30.844Z,1009.68
2018-08-04T09:30:30.717Z,1009.66
2018-08-04T09:31:30.711Z,1009.65
2018-08-04T09:32:30.709Z,1009.64
2018-08-04T09:33:30.689Z,1009.67
2018-08-04T09:34:30.682Z,1009.68
2018-08-04T09:35:30.678Z,1009.69
2018-08-04T09:36:30.663Z,1009.70
2018-08-04T09:37:30.667Z,1009.63
2018-08-04T09:38:30.643Z,1009.68
2018-08-04T09:39:30.643Z,1009.63
2018-08-04T09:40:30.674Z,1009.61
2018-08-04T09:41:30.663Z,1009.62
2018-08-04T09:42:30.617Z,1009.60
2018-08-04T09:43:30.597Z,1009.59
2018-08-04T09:44:30.589Z,1009.60
2018-08-04T09:45:30.586Z,1009.60
2018-08-04T09:46:30.568Z,1009.54
2018-08-04T09:47:30.629Z,1009.61
2018-08-04T09:48:30.556Z,1009.61
2018-08-04T09:49:30.634Z,1009.57
2018-08-04T09:50:30.536Z,1009.58
2018-08-04T09:51:30.525Z,1009.57
2018-08-04T09:52:30.555Z,1009.53
2018-08-04T09:53:30.526Z,1009.55
2018-08-04T09:54:30.505Z,1009.60
2018-08-04T09:55:30.590Z,1009.58
2018-08-04T09:56:30.481Z,1009.58
2018-08-04T09:57:30.475Z,1009.60
2018-08-04T09:58:30.557Z,1009.57
2018-08-04T09:59:30.509Z,1009.60
2018-08-04T10:00:30.454Z,1009.62
2018-08-04T10:01:30.440Z,1009.62
2018-08-04T10:02:30.444Z,1009.55
2018-08-04T10:03:30.453Z,1009.54
2018-08-04T10:04:30.416Z,1009.56
2018-08-04T10:05:30.415Z,1009.55
2018-08-04T10:06:30.401Z,1009.55
2018-08-04T10:07:30.390Z,1009.52
2018-08-04T10:08:30.380Z,1009.53
2018-08-04T10:09:30.382Z,1009.50
2018-08-04T10:10:30.364Z,1009.54
2018-08-04T10:11:30.355Z,1009.56
2018-08-04T10:12:30.346Z,1009.53
2018-08-04T10:13:30.335Z,1009.55
2018-08-04T10:14:30.340Z,1009.58
2018-08-04T10:15:30.318Z,1009.56
2018-08-04T10:16:30.311Z,1009.53
2018-08-04T10:17:30.303Z,1009.52
2018-08-04T10:18:30.294Z,1009.60
2018-08-04T10:19:30.313Z,1009.54
2018-08-04T10:20:30.278Z,1009.58
2018-08-04T10:21:30.272Z,1009.56
2018-08-04T10:22:30.259Z,1009.56
2018-08-04T10:23:30.255Z,1009.57
2018-08-04T10:24:30.243Z,1009.53
2018-08-04T10:25:30.248Z,1009.53
2018-08-04T10:26:30.231Z,1009.54
2018-08-04T10:27:30.220Z,1009.56
2018-08-04T10:28:30.211Z,1009.54
2018-08-04T10:29:30.204Z,1009.56
2018-08-04T10:30:30.205Z,1009.52
2018-08-04T10:31:30.188Z,1009.57
2018-08-04T10:32:30.210Z,1009.52
2018-08-04T10:33:30.171Z,1009.59
2018-08-04T10:34:30.162Z,1009.57
2018-08-04T10:35:30.174Z,1009.56
2018-08-04T10:36:30.147Z,1009.54
2018-08-04T10:37:30.139Z,1009.51
2018-08-04T10:38:30.140Z,1009.52
2018-08-04T10:39:30.121Z,1009.51
2018-08-04T10:40:30.114Z,1009.47
2018-08-04T10:41:30.115Z,1009.51
2018-08-04T10:42:30.096Z,1009.50
2018-08-04T10:43:30.091Z,1009.49
2018-08-04T10:44:30.085Z,1009.43
2018-08-04T10:45:30.080Z,1009.47
2018-08-04T10:46:30.083Z,1009.48
2018-08-04T10:47:30.056Z,1009.47
2018-08-04T10:48:30.050Z,1009.52
2018-08-04T10:49:30.047Z,1009.44
2018-08-04T10:50:30.034Z,1009.51
2018-08-04T10:51:30.025Z,1009.42
2018-08-04T10:52:30.027Z,1009.46
2018-08-04T10:53:30.012Z,1009.49
2018-08-04T10:54:30.000Z,1009.51
2018-08-04T10:55:29.995Z,1009.52
2018-08-04T10:56:29.985Z,1009.52
2018-08-04T10:57:29.993Z,1009.53
2018-08-04T10:58:29.975Z,1009.52
2018-08-04T10:59:29.966Z,1009.51
2018-08-04T11:00:29.956Z,1009.54
2018-08-04T11:01:29.955Z,1009.53
2018-08-04T11:02:29.952Z,1009.53
2018-08-04T11:03:29.933Z,1009.51
2018-08-04T11:04:29.926Z,1009.56
2018-08-04T11:05:29.917Z,1009.55
2018-08-04T11:06:29.909Z,1009.56
2018-08-04T11:07:29.923Z,1009.61
2018-08-04T11:08:29.894Z,1009.58
2018-08-04T11:09:29.886Z,1009.58
2018-08-04T11:10:29.879Z,1009.60
2018-08-04T11:11:29.870Z,1009.61
2018-08-04T11:12:29.870Z,1009.57
2018-08-04T11:13:29.867Z,1009.57
2018-08-04T11:14:29.849Z,1009.60
2018-08-04T11:15:29.841Z,1009.62
2018-08-04T11:16:29.836Z,1009.57
2018-08-04T11:17:29.828Z,1009.56
2018-08-04T11:18:29.832Z,1009.58
2018-08-04T11:19:29.810Z,1009.55
2018-08-04T11:20:29.816Z,1009.57
2018-08-04T11:21:29.797Z,1009.57
2018-08-04T11:22:29.789Z,1009.55
2018-08-04T11:23:29.782Z,1009.61
2018-08-04T11:24:29.801Z,1009.65
2018-08-04T11:25:29.765Z,1009.61
2018-08-04T11:26:29.762Z,1009.62
2018-08-04T11:27:29.752Z,1009.62
2018-08-04T11:28:29.745Z,1009.59
2018-08-04T11:29:29.749Z,1009.59
2018-08-04T11:30:29.727Z,1009.59
2018-08-04T11:31:29.721Z,1009.58
2018-08-04T11:32:29.714Z,1009.60
2018-08-04T11:33:29.707Z,1009.58
2018-08-04T11:34:29.715Z,1009.59
2018-08-04T11:35:29.696Z,1009.53
2018-08-04T11:36:29.694Z,1009.53
2018-08-04T11:37:30.433Z,1009.52
2018-08-04T11:38:29.669Z,1009.49
2018-08-04T11:39:29.675Z,1009.50
2018-08-04T11:40:29.659Z,1009.47
2018-08-04T11:41:29.650Z,1009.47
2018-08-04T11:42:29.644Z,1009.49
2018-08-04T11:43:29.636Z,1009.53
2018-08-04T11:44:29.646Z,1009.52
2018-08-04T11:45:29.673Z,1009.54
2018-08-04T11:46:29.616Z,1009.50
2018-08-04T11:47:29.609Z,1009.53
2018-08-04T11:48:29.601Z,1009.51
2018-08-04T11:49:29.611Z,1009.56
2018-08-04T11:50:29.585Z,1009.53
2018-08-04T11:51:29.609Z,1009.51
2018-08-04T11:52:29.572Z,1009.50
2018-08-04T11:53:29.567Z,1009.48
2018-08-04T11:54:29.560Z,1009.42
2018-08-04T11:55:29.563Z,1009.46
2018-08-04T11:56:29.547Z,1009.50
2018-08-04T11:57:29.541Z,1009.54
2018-08-04T11:58:29.588Z,1009.51
2018-08-04T11:59:29.527Z,1009.51
2018-08-04T12:00:29.536Z,1009.54
2018-08-04T12:01:29.512Z,1009.52
2018-08-04T12:02:38.046Z,1009.48
2018-08-04T12:03:29.495Z,1009.46
2018-08-04T12:04:29.488Z,1009.43
2018-08-04T12:05:29.580Z,1009.42